2MARL EGJJ-EGJB

Flight info

Callsign 2MARL
Flight time 0h 5m
Altitude 4000
Route GUR
Aircraft C750/M-SBDE3FGHRWXY/S

Departure

Time 2026-05-04 17:56
Airport Jersey Airport (EGJJ)

Arrival

Time 2026-05-04 18:02
Airport Guernsey Airport (EGJB)
Time Latitude Longitude Altitude Speed Heading
2026-05-04 17:48 49.20402 -2.19398 278 ft 28 kts 95°
2026-05-04 17:49 49.20373 -2.19241 278 ft 10 kts 231°
2026-05-04 17:49 49.20365 -2.19270 278 ft 5 kts 111°
2026-05-04 17:49 49.20362 -2.19257 278 ft 0 kts 109°
2026-05-04 17:54 49.20390 -2.19224 278 ft 13 kts
2026-05-04 17:54 49.20402 -2.19376 278 ft 26 kts 265°
2026-05-04 17:54 49.20441 -2.19703 277 ft 31 kts 267°
2026-05-04 17:54 49.20500 -2.19974 277 ft 26 kts 311°
2026-05-04 17:55 49.20563 -2.20218 277 ft 24 kts 286°
2026-05-04 17:55 49.20605 -2.20455 276 ft 20 kts 292°
2026-05-04 17:55 49.20629 -2.20625 276 ft 14 kts 277°
2026-05-04 17:55 49.20698 -2.20687 275 ft 10 kts 26°
2026-05-04 17:56 49.20708 -2.20631 275 ft 32 kts 77°
2026-05-04 17:56 49.20792 -2.19702 317 ft 128 kts 78°
2026-05-04 17:56 49.20926 -2.18138 740 ft 130 kts 81°
2026-05-04 17:56 49.20986 -2.17001 1963 ft 115 kts 81°
2026-05-04 17:57 49.21033 -2.15448 2026 ft 174 kts 88°
2026-05-04 17:57 49.21508 -2.13528 2025 ft 227 kts 49°
2026-05-04 17:57 49.22939 -2.12066 2189 ft 263 kts 23°
2026-05-04 17:57 49.24754 -2.11665 2283 ft 279 kts 359°
2026-05-04 17:58 49.26750 -2.12605 2072 ft 323 kts 333°
2026-05-04 17:58 49.28564 -2.14845 1993 ft 351 kts 310°
2026-05-04 17:58 49.29835 -2.18133 2027 ft 367 kts 298°
2026-05-04 17:58 49.30992 -2.21717 2024 ft 382 kts 296°
2026-05-04 17:59 49.32173 -2.25431 2014 ft 393 kts 297°
2026-05-04 17:59 49.33430 -2.29193 2010 ft 400 kts 297°
2026-05-04 17:59 49.36109 -2.36733 1995 ft 409 kts 303°
2026-05-04 18:00 49.37746 -2.40315 1997 ft 411 kts 307°
2026-05-04 18:00 49.39464 -2.43833 1997 ft 403 kts 307°
2026-05-04 18:00 49.40990 -2.47052 1715 ft 349 kts 306°
2026-05-04 18:00 49.42332 -2.49888 1287 ft 309 kts 313°
2026-05-04 18:01 49.43224 -2.52604 958 ft 267 kts 282°
2026-05-04 18:01 49.43373 -2.54907 1046 ft 174 kts 276°
2026-05-04 18:01 49.43480 -2.56621 879 ft 162 kts 277°
2026-05-04 18:02 49.43501 -2.59861 327 ft 122 kts 270°
2026-05-04 18:02 49.43478 -2.60801 309 ft 55 kts 265°
2026-05-04 18:02 49.43471 -2.61194 304 ft 21 kts 267°
2026-05-04 18:02 49.43473 -2.61324 301 ft 1 kts 173°
2026-05-04 18:03 49.43480 -2.60949 307 ft 89 kts 87°
2026-05-04 18:03 49.43498 -2.60318 313 ft 86 kts 88°
2026-05-04 18:03 49.43516 -2.59553 325 ft 49 kts 88°
2026-05-04 18:03 49.43427 -2.59199 330 ft 2 kts 176°
2026-05-04 18:04 49.43417 -2.59198 330 ft 2 kts 175°
2026-05-04 18:04 49.43384 -2.59050 328 ft 25 kts 81°
2026-05-04 18:04 49.43354 -2.59037 330 ft 0 kts 272°